Time;durP1;ratioP1;P1;durP2;ratioP2;P2;SDS_P1;SDS_P2;PMS_P1;PMS_P2;Temp;Humidity;BMP_temperature;BMP_pressure;BME280_temperature;BME280_humidity;BME280_pressure;Samples;Min_cycle;Max_cycle;Signal;HPM_P1;HPM_P2
2022/05/28 00:01:11;;;;;;;0.68;0.68;;;;;;;17.89;46.68;99660.66;4348482;32;33658;-69
2022/05/28 00:03:39;;;;;;;0.95;0.80;;;;;;;18.29;46.22;99658.31;4361834;32;33950;-68
2022/05/28 00:06:17;;;;;;;1.45;0.80;;;;;;;18.43;45.40;99654.47;4362122;32;34215;-71
2022/05/28 00:08:46;;;;;;;0.77;0.77;;;;;;;18.45;45.77;99662.44;4347904;32;33795;-72
2022/05/28 00:11:18;;;;;;;0.60;0.60;;;;;;;18.98;44.07;99659.19;4361718;32;34198;-70
2022/05/28 00:13:46;;;;;;;1.10;0.77;;;;;;;18.49;45.90;99652.47;4363618;32;34060;-71
2022/05/28 00:16:14;;;;;;;0.82;0.70;;;;;;;18.56;45.46;99668.53;4363775;32;33710;-69
2022/05/28 00:18:44;;;;;;;0.70;0.70;;;;;;;18.92;43.89;99659.59;4364030;32;34063;-69
2022/05/28 00:21:12;;;;;;;0.70;0.70;;;;;;;18.53;44.92;99656.25;4363738;32;33624;-69
2022/05/28 00:23:41;;;;;;;0.85;0.68;;;;;;;18.41;45.68;99651.22;4363818;32;34031;-69
2022/05/28 00:26:08;;;;;;;0.70;0.70;;;;;;;17.81;47.73;99646.47;4350395;32;34104;-68
2022/05/28 00:28:37;;;;;;;1.40;0.90;;;;;;;17.97;46.83;99646.22;4363316;32;33889;-68
2022/05/28 00:31:05;;;;;;;0.73;0.73;;;;;;;17.46;47.81;99644.28;4363756;32;33387;-71
2022/05/28 00:33:32;;;;;;;1.90;0.65;;;;;;;17.69;47.11;99659.00;4363753;32;34628;-69
2022/05/28 00:36:04;;;;;;;1.02;0.80;;;;;;;17.96;46.04;99677.56;4363222;32;34306;-69
2022/05/28 00:38:31;;;;;;;1.27;0.70;;;;;;;18.03;45.90;99694.44;4363541;32;33961;-67
2022/05/28 00:40:59;;;;;;;0.70;0.70;;;;;;;17.63;46.70;99686.53;4363628;32;33222;-68
2022/05/28 00:43:28;;;;;;;1.10;0.80;;;;;;;17.50;47.30;99697.44;4363242;32;34035;-72
2022/05/28 00:46:06;;;;;;;1.00;0.90;;;;;;;17.27;46.65;99699.94;4363753;32;34034;-68
2022/05/28 00:48:36;;;;;;;1.37;0.90;;;;;;;17.59;46.05;99703.91;4350227;32;33605;-65
2022/05/28 00:51:16;;;;;;;1.00;0.80;;;;;;;17.44;45.94;99691.22;4350320;32;33713;-70
2022/05/28 00:53:43;;;;;;;0.80;0.80;;;;;;;17.66;45.81;99700.78;4350227;32;34874;-72
2022/05/28 00:56:11;;;;;;;1.00;0.88;;;;;;;18.02;44.89;99704.63;4349658;32;35057;-68
2022/05/28 00:58:39;;;;;;;0.80;0.80;;;;;;;17.29;46.11;99684.00;4363298;32;34135;-68
2022/05/28 01:01:08;;;;;;;0.77;0.77;;;;;;;16.98;46.47;99676.19;4363393;32;33418;-67
2022/05/28 01:03:43;;;;;;;0.80;0.80;;;;;;;17.51;45.83;99674.38;4350084;32;34626;-74
2022/05/28 01:06:17;;;;;;;0.73;0.70;;;;;;;17.28;46.67;99660.44;4349895;32;35106;-68
2022/05/28 01:08:50;;;;;;;1.60;0.80;;;;;;;17.39;46.60;99653.69;4349767;32;33927;-69
2022/05/28 01:11:36;;;;;;;0.95;0.88;;;;;;;17.98;45.33;99650.63;4349803;32;33468;-71
2022/05/28 01:14:22;;;;;;;0.80;0.80;;;;;;;17.26;47.14;99651.69;4349929;32;34632;-72
2022/05/28 01:16:57;;;;;;;2.45;1.00;;;;;;;17.49;46.39;99647.25;4363500;32;34708;-71
2022/05/28 01:19:43;;;;;;;;;;;;;;;17.30;47.22;99640.94;4350397;32;33581;-68
2022/05/28 01:22:20;;;;;;;1.30;0.73;;;;;;;17.43;47.04;99638.28;4363685;32;33401;-68
2022/05/28 01:25:03;;;;;;;0.82;0.80;;;;;;;17.02;47.89;99633.38;4337513;32;33963;-72
2022/05/28 01:27:34;;;;;;;1.00;0.90;;;;;;;17.04;48.08;99629.50;4349388;32;34249;-68
2022/05/28 01:30:06;;;;;;;1.08;0.93;;;;;;;17.56;47.41;99625.75;4349792;32;34649;-69
2022/05/28 01:32:35;;;;;;;0.90;0.90;;;;;;;17.22;48.11;99624.06;4363488;32;32989;-69
2022/05/28 01:35:06;;;;;;;1.08;0.90;;;;;;;16.79;49.45;99626.78;4350013;32;33834;-69
2022/05/28 01:37:35;;;;;;;1.10;1.00;;;;;;;17.32;48.02;99636.81;4349904;32;34165;-71
2022/05/28 01:40:05;;;;;;;2.03;1.05;;;;;;;16.60;49.46;99628.66;4349431;32;33982;-71
2022/05/28 01:42:34;;;;;;;1.27;1.17;;;;;;;17.10;48.69;99631.88;4349730;32;33985;-68
2022/05/28 01:45:03;;;;;;;0.80;0.80;;;;;;;17.14;48.32;99623.91;4349952;32;34644;-72
2022/05/28 01:47:32;;;;;;;1.35;1.00;;;;;;;16.96;48.87;99620.03;4349684;32;34248;-69
2022/05/28 01:50:06;;;;;;;1.00;0.90;;;;;;;17.04;48.66;99633.09;4350641;32;33662;-73
2022/05/28 01:52:34;;;;;;;1.12;1.02;;;;;;;17.11;48.52;99643.69;4363420;32;33329;-68
2022/05/28 01:55:03;;;;;;;0.82;0.82;;;;;;;16.89;48.98;99656.03;4349524;32;33847;-72
2022/05/28 01:57:30;;;;;;;1.00;0.90;;;;;;;16.25;51.08;99651.78;4349711;32;34989;-72
2022/05/28 01:59:58;;;;;;;0.80;0.80;;;;;;;16.61;49.90;99646.75;4363297;32;33511;-73
2022/05/28 02:02:25;;;;;;;1.70;1.05;;;;;;;16.78;49.75;99651.72;4363189;32;33630;-71
2022/05/28 02:04:54;;;;;;;2.05;0.90;;;;;;;17.14;49.25;99646.62;4363224;32;34095;-73
2022/05/28 02:07:22;;;;;;;0.95;0.82;;;;;;;16.85;49.78;99651.44;4362845;32;34200;-70
2022/05/28 02:09:54;;;;;;;1.08;0.95;;;;;;;17.35;48.71;99658.16;4362687;32;33951;-68
2022/05/28 02:12:25;;;;;;;1.58;0.80;;;;;;;17.58;48.10;99650.13;4349786;32;33209;-73
2022/05/28 02:15:04;;;;;;;1.33;0.88;;;;;;;17.41;48.65;99640.50;4363143;32;34046;-69
2022/05/28 02:17:56;;;;;;;1.02;0.93;;;;;;;17.82;47.65;99659.13;4362951;32;34176;-68
2022/05/28 02:20:28;;;;;;;1.10;1.00;;;;;;;17.66;48.22;99659.63;4362957;32;33961;-72
2022/05/28 02:23:39;;;;;;;0.80;0.80;;;;;;;17.37;49.35;99647.69;4362774;32;34246;-71
2022/05/28 02:26:28;;;;;;;1.02;0.80;;;;;;;17.39;49.31;99645.47;4349922;32;33926;-72
2022/05/28 02:28:56;;;;;;;1.60;0.90;;;;;;;17.17;49.91;99651.56;4363059;32;34987;-71
2022/05/28 02:31:26;;;;;;;1.10;1.00;;;;;;;17.11;50.12;99651.91;4349676;32;34626;-74
2022/05/28 02:33:54;;;;;;;1.33;0.90;;;;;;;17.23;49.91;99663.25;4349997;32;33201;-71
2022/05/28 02:36:24;;;;;;;1.80;1.12;;;;;;;17.21;50.21;99657.25;4348634;32;34087;-73
2022/05/28 02:38:52;;;;;;;2.08;1.00;;;;;;;17.58;49.31;99661.94;4362721;32;34210;-69
2022/05/28 02:41:20;;;;;;;1.15;0.98;;;;;;;17.21;50.29;99671.78;4362285;32;34821;-71
2022/05/28 02:43:48;;;;;;;0.70;0.70;;;;;;;17.57;49.47;99675.94;4362856;32;33484;-68
2022/05/28 02:46:15;;;;;;;0.80;0.80;;;;;;;17.60;49.33;99670.69;4362925;32;34092;-69
2022/05/28 02:48:45;;;;;;;1.55;1.10;;;;;;;17.80;48.96;99666.81;4362677;32;35100;-69
2022/05/28 02:51:18;;;;;;;0.77;0.77;;;;;;;17.45;49.99;99668.16;4362550;32;33743;-69
2022/05/28 02:53:48;;;;;;;0.80;0.80;;;;;;;16.94;51.29;99664.19;4349448;32;33563;-71
2022/05/28 02:56:16;;;;;;;1.65;1.10;;;;;;;16.89;51.80;99663.41;4362565;32;34644;-71
2022/05/28 02:58:44;;;;;;;2.22;1.23;;;;;;;16.47;52.55;99659.47;4362725;32;34381;-69
2022/05/28 03:01:16;;;;;;;0.90;0.80;;;;;;;16.48;52.91;99645.50;4362597;32;34076;-70
2022/05/28 03:03:45;;;;;;;1.23;0.95;;;;;;;16.71;52.36;99640.31;4362750;32;33689;-70
2022/05/28 03:06:13;;;;;;;1.33;1.10;;;;;;;16.38;53.20;99646.41;4362650;32;33810;-69
2022/05/28 03:08:42;;;;;;;1.85;1.20;;;;;;;16.75;52.69;99646.84;4362341;32;35069;-69
2022/05/28 03:11:09;;;;;;;1.52;0.82;;;;;;;16.74;52.56;99645.22;4348889;32;33938;-72
2022/05/28 03:13:37;;;;;;;2.15;1.10;;;;;;;16.21;53.87;99632.38;4362615;32;33433;-68
2022/05/28 03:16:05;;;;;;;1.10;0.90;;;;;;;15.63;55.42;99630.38;4362646;32;33761;-69
2022/05/28 03:18:33;;;;;;;1.00;0.90;;;;;;;15.97;54.84;99627.66;4362556;32;34188;-68
2022/05/28 03:21:00;;;;;;;1.50;1.20;;;;;;;16.05;54.54;99642.66;4362438;32;34473;-69
2022/05/28 03:23:28;;;;;;;1.10;1.00;;;;;;;16.25;53.78;99641.63;4362247;32;33152;-68
2022/05/28 03:25:56;;;;;;;1.55;1.10;;;;;;;16.28;53.73;99643.78;4362197;32;33917;-69
2022/05/28 03:28:23;;;;;;;2.03;0.98;;;;;;;16.61;53.27;99647.56;4362406;32;35016;-68
2022/05/28 03:30:51;;;;;;;0.95;0.80;;;;;;;16.74;52.86;99643.28;4361933;32;34581;-69
2022/05/28 03:33:18;;;;;;;1.45;1.02;;;;;;;16.33;53.74;99641.00;4362432;32;33294;-69
2022/05/28 03:35:46;;;;;;;1.10;1.00;;;;;;;16.54;52.84;99636.13;4362097;32;34714;-73
2022/05/28 03:38:13;;;;;;;1.27;1.12;;;;;;;16.21;54.09;99632.38;4362336;32;35146;-69
2022/05/28 03:40:41;;;;;;;2.40;1.10;;;;;;;16.90;52.01;99623.94;4361858;32;33917;-70
2022/05/28 03:43:09;;;;;;;3.15;1.60;;;;;;;16.87;52.07;99630.00;4362386;32;34061;-67
2022/05/28 03:45:37;;;;;;;1.65;1.05;;;;;;;16.66;52.56;99640.38;4361871;32;33782;-67
2022/05/28 03:48:06;;;;;;;1.27;1.00;;;;;;;16.50;53.12;99642.47;4363434;32;34218;-75
2022/05/28 03:50:34;;;;;;;1.05;0.95;;;;;;;16.42;53.35;99645.84;4350609;32;33955;-71
2022/05/28 03:53:01;;;;;;;0.90;0.90;;;;;;;16.77;52.47;99644.63;4363708;32;34305;-72
2022/05/28 03:55:29;;;;;;;1.70;1.20;;;;;;;16.83;52.14;99648.97;4363848;32;34037;-68
2022/05/28 03:57:57;;;;;;;1.17;1.05;;;;;;;16.49;53.25;99649.06;4350213;32;35037;-69
2022/05/28 04:00:24;;;;;;;1.10;0.90;;;;;;;16.42;53.60;99637.66;4363821;32;34137;-69
2022/05/28 04:02:52;;;;;;;1.75;1.00;;;;;;;16.78;52.61;99640.75;4364035;32;34197;-70
2022/05/28 04:05:19;;;;;;;1.17;1.00;;;;;;;16.46;53.11;99638.66;4363675;32;33908;-72
2022/05/28 04:07:47;;;;;;;1.15;0.95;;;;;;;16.13;54.73;99631.09;4363710;32;35100;-69
2022/05/28 04:10:15;;;;;;;1.10;1.00;;;;;;;16.34;53.67;99625.38;4361115;32;33968;-75
2022/05/28 04:12:42;;;;;;;2.22;1.00;;;;;;;16.57;53.27;99627.31;4363678;32;34146;-68
2022/05/28 04:15:11;;;;;;;2.05;1.17;;;;;;;16.55;53.04;99634.22;4350421;32;34608;-69
2022/05/28 04:17:39;;;;;;;1.12;1.02;;;;;;;16.58;52.71;99641.81;4363915;32;34273;-70
2022/05/28 04:20:08;;;;;;;1.10;1.00;;;;;;;16.91;51.92;99651.06;4363805;32;33649;-70
2022/05/28 04:22:36;;;;;;;1.55;1.00;;;;;;;16.70;52.87;99650.47;4364061;32;34053;-68
2022/05/28 04:25:04;;;;;;;1.25;1.02;;;;;;;16.93;52.32;99637.06;4363098;32;34655;-67
2022/05/28 04:27:31;;;;;;;1.40;1.00;;;;;;;17.24;51.35;99637.47;4350339;32;33992;-68
2022/05/28 04:30:02;;;;;;;1.05;1.00;;;;;;;17.16;51.82;99629.91;4363733;32;34703;-70
2022/05/28 04:32:30;;;;;;;2.05;1.00;;;;;;;17.04;51.72;99635.84;4347528;33;33781;-66
2022/05/28 04:34:58;;;;;;;1.20;0.98;;;;;;;16.76;53.13;99632.03;4348428;33;34792;-67
2022/05/28 04:37:25;;;;;;;1.25;1.10;;;;;;;16.34;54.29;99634.41;4348813;33;35167;-67
2022/05/28 04:39:53;;;;;;;1.77;1.12;;;;;;;16.41;53.76;99631.31;4352718;32;33753;-68
2022/05/28 04:42:20;;;;;;;1.85;1.12;;;;;;;17.02;52.38;99638.06;4363430;32;33383;-67
2022/05/28 04:44:48;;;;;;;1.48;1.10;;;;;;;16.26;54.08;99635.03;4350367;32;33089;-68
2022/05/28 04:47:15;;;;;;;1.35;1.00;;;;;;;16.74;53.33;99646.03;4363213;32;35122;-68
2022/05/28 04:49:43;;;;;;;1.20;1.10;;;;;;;16.78;53.83;99657.19;4363454;32;34751;-68
2022/05/28 04:52:10;;;;;;;2.28;1.40;;;;;;;16.99;53.03;99644.09;4363248;32;33524;-66
2022/05/28 04:54:38;;;;;;;2.75;1.10;;;;;;;16.79;53.13;99643.22;4362847;32;34658;-74
2022/05/28 04:57:05;;;;;;;1.33;1.10;;;;;;;16.81;53.57;99642.97;4363466;32;34947;-71
2022/05/28 04:59:33;;;;;;;1.15;1.05;;;;;;;17.10;52.65;99655.75;4362555;32;33996;-73
2022/05/28 05:02:01;;;;;;;1.02;0.93;;;;;;;16.81;53.29;99649.25;4363010;32;33368;-71
2022/05/28 05:04:28;;;;;;;1.40;1.17;;;;;;;17.39;51.80;99655.63;4363268;32;33890;-66
2022/05/28 05:06:56;;;;;;;1.42;1.02;;;;;;;17.68;50.57;99660.94;4363329;32;35085;-67
2022/05/28 05:09:24;;;;;;;2.20;1.35;;;;;;;17.10;52.72;99669.47;4363118;32;33934;-67
2022/05/28 05:11:51;;;;;;;1.83;1.30;;;;;;;17.34;52.22;99672.97;4363039;32;33646;-67
2022/05/28 05:14:19;;;;;;;1.37;1.20;;;;;;;17.42;51.79;99666.00;4362947;32;34707;-67
2022/05/28 05:16:46;;;;;;;0.98;0.93;;;;;;;17.37;51.52;99658.66;4363282;32;34051;-70
2022/05/28 05:19:14;;;;;;;1.70;1.05;;;;;;;17.53;51.13;99653.75;4363186;32;33945;-67
2022/05/28 05:21:41;;;;;;;1.40;1.10;;;;;;;17.07;52.05;99657.16;4363516;32;34389;-67
2022/05/28 05:24:10;;;;;;;2.25;1.23;;;;;;;17.36;51.59;99648.78;4362845;32;34033;-67
2022/05/28 05:26:37;;;;;;;1.80;1.17;;;;;;;17.35;51.75;99652.66;4349861;32;34388;-67
2022/05/28 05:29:04;;;;;;;1.27;1.00;;;;;;;17.21;51.99;99665.47;4363252;32;34557;-67
2022/05/28 05:31:32;;;;;;;1.20;1.02;;;;;;;17.49;51.49;99666.44;4349632;32;33525;-68
2022/05/28 05:34:00;;;;;;;2.05;1.40;;;;;;;17.41;51.76;99653.41;4362784;32;33724;-69
2022/05/28 05:36:27;;;;;;;1.65;1.20;;;;;;;17.29;51.88;99655.78;4363274;32;34265;-73
2022/05/28 05:38:55;;;;;;;1.37;1.02;;;;;;;17.33;52.77;99659.56;4362465;32;34401;-67
2022/05/28 05:41:22;;;;;;;1.25;1.10;;;;;;;17.21;52.90;99660.81;4361885;32;33496;-69
2022/05/28 05:43:50;;;;;;;2.33;1.08;;;;;;;17.98;51.15;99673.41;4363136;32;34644;-71
2022/05/28 05:46:18;;;;;;;3.10;1.17;;;;;;;17.65;52.71;99668.97;4349761;32;34932;-68
2022/05/28 05:48:46;;;;;;;1.62;1.23;;;;;;;18.02;51.57;99677.16;4363099;32;33864;-68
2022/05/28 05:51:16;;;;;;;1.17;1.00;;;;;;;18.35;49.14;99679.09;4363025;32;33396;-68
2022/05/28 05:53:44;;;;;;;1.20;1.10;;;;;;;18.12;50.37;99678.94;4362810;32;33813;-68
2022/05/28 05:56:11;;;;;;;2.00;1.50;;;;;;;18.17;50.26;99667.88;4363020;32;34281;-68
2022/05/28 05:58:40;;;;;;;1.92;1.48;;;;;;;18.42;49.71;99657.53;4349697;32;33907;-69
2022/05/28 06:01:08;;;;;;;1.20;1.10;;;;;;;17.65;51.83;99656.06;4363025;32;33598;-74
2022/05/28 06:03:44;;;;;;;2.37;1.05;;;;;;;17.94;51.16;99663.31;4363041;32;34497;-74
2022/05/28 06:06:13;;;;;;;1.50;1.05;;;;;;;18.03;50.87;99658.75;4363144;32;34299;-69
2022/05/28 06:08:42;;;;;;;2.05;1.30;;;;;;;18.29;50.69;99655.56;4349329;32;33955;-69
2022/05/28 06:11:10;;;;;;;1.92;1.20;;;;;;;18.16;50.75;99647.03;4362967;32;33479;-69
2022/05/28 06:13:37;;;;;;;1.58;1.10;;;;;;;17.98;51.23;99645.94;4362870;32;33732;-70
2022/05/28 06:16:05;;;;;;;1.67;1.20;;;;;;;18.64;49.94;99651.34;4362955;32;34181;-69
2022/05/28 06:18:33;;;;;;;1.30;1.17;;;;;;;18.87;49.65;99660.53;4363156;32;34547;-68
2022/05/28 06:21:01;;;;;;;1.67;1.15;;;;;;;18.60;47.92;99658.56;4363029;32;34145;-69
2022/05/28 06:23:29;;;;;;;2.42;1.33;;;;;;;19.54;47.41;99654.38;4361751;32;33898;-77
2022/05/28 06:25:56;;;;;;;0.90;0.88;;;;;;;20.22;45.89;99652.47;4347105;32;35040;-69
2022/05/28 06:28:24;;;;;;;2.12;1.30;;;;;;;20.16;46.34;99648.22;4362903;32;33876;-70
2022/05/28 06:30:52;;;;;;;1.42;1.20;;;;;;;20.59;43.28;99650.41;4362632;32;34038;-73
2022/05/28 06:33:19;;;;;;;1.40;1.20;;;;;;;20.11;46.10;99658.56;4362904;32;34026;-69
2022/05/28 06:35:47;;;;;;;2.58;1.25;;;;;;;19.41;45.98;99656.06;4349272;32;34151;-68
2022/05/28 06:38:15;;;;;;;2.78;1.30;;;;;;;20.03;45.15;99663.69;4360162;32;34494;-69
2022/05/28 06:40:43;;;;;;;1.62;1.08;;;;;;;19.33;45.25;99647.72;4362948;32;33509;-81
2022/05/28 06:43:10;;;;;;;1.30;1.10;;;;;;;19.19;45.43;99648.56;4362779;32;34024;-82
2022/05/28 06:45:38;;;;;;;1.95;1.10;;;;;;;19.59;45.49;99653.44;4362500;32;34289;-69
2022/05/28 06:48:06;;;;;;;1.20;1.08;;;;;;;19.99;44.28;99653.62;4362769;32;33907;-81
2022/05/28 06:53:20;;;;;;;1.23;1.12;;;;;;;19.36;45.71;99652.63;4362346;32;33982;-80
2022/05/28 06:55:48;;;;;;;1.20;1.10;;;;;;;18.93;47.50;99647.50;4348705;32;33843;-73
2022/05/28 06:58:15;;;;;;;1.02;0.93;;;;;;;19.07;47.29;99656.56;4362337;32;33912;-71
2022/05/28 07:00:43;;;;;;;1.77;0.95;;;;;;;19.43;46.58;99658.50;4349210;32;34373;-71
2022/05/28 07:03:16;;;;;;;1.62;1.00;;;;;;;19.18;46.17;99668.13;4362540;32;33766;-68
2022/05/28 07:05:44;;;;;;;1.80;1.12;;;;;;;19.99;45.27;99672.91;4349137;32;34236;-69
2022/05/28 07:08:12;;;;;;;2.17;1.30;;;;;;;19.98;44.44;99668.53;4362589;32;33890;-68
2022/05/28 07:10:45;;;;;;;1.55;1.15;;;;;;;19.88;43.77;99673.16;4349121;32;34235;-69
2022/05/28 07:13:13;;;;;;;2.05;1.30;;;;;;;20.05;42.74;99677.97;4362445;32;34520;-69
2022/05/28 07:15:40;;;;;;;3.65;1.23;;;;;;;19.08;47.15;99676.62;4362251;32;34133;-69
2022/05/28 07:18:08;;;;;;;1.77;1.23;;;;;;;19.78;44.88;99678.91;4362307;32;33555;-69
2022/05/28 07:20:36;;;;;;;1.62;1.17;;;;;;;19.72;44.63;99677.41;4362408;32;33553;-69
2022/05/28 07:23:09;;;;;;;1.37;1.00;;;;;;;19.57;46.16;99686.81;4358611;32;34752;-70
2022/05/28 07:25:37;;;;;;;1.83;1.30;;;;;;;19.75;43.79;99689.75;4359484;32;33638;-68
2022/05/28 07:28:24;;;;;;;1.65;1.20;;;;;;;19.39;43.39;99685.00;4361143;32;34733;-68
2022/05/28 07:30:53;;;;;;;2.53;1.23;;;;;;;19.56;43.79;99682.41;4349575;32;34210;-68
2022/05/28 07:33:21;;;;;;;2.28;1.30;;;;;;;19.50;44.88;99691.91;4360838;32;33875;-69
2022/05/28 07:35:49;;;;;;;2.65;1.30;;;;;;;19.55;43.77;99702.81;4360976;32;34734;-68
2022/05/28 07:38:17;;;;;;;1.45;1.12;;;;;;;19.33;44.70;99700.00;4360274;32;33604;-74
2022/05/28 07:40:44;;;;;;;2.10;1.30;;;;;;;19.18;47.48;99709.38;4360731;32;33158;-68
2022/05/28 07:43:12;;;;;;;2.08;1.35;;;;;;;19.74;43.20;99705.44;4360617;32;34931;-78
2022/05/28 07:45:42;;;;;;;1.75;1.30;;;;;;;19.80;43.25;99706.94;4361983;32;34877;-68
2022/05/28 07:48:11;;;;;;;1.40;1.08;;;;;;;19.98;42.86;99704.34;4361963;32;34505;-68
2022/05/28 07:50:39;;;;;;;4.00;1.67;;;;;;;19.90;42.63;99700.38;4361792;32;34443;-68
2022/05/28 07:53:08;;;;;;;1.48;1.10;;;;;;;20.25;41.76;99709.69;4361542;32;34705;-68
2022/05/28 07:55:36;;;;;;;1.80;1.27;;;;;;;20.21;41.24;99710.63;4361870;32;33732;-70
2022/05/28 07:58:08;;;;;;;2.35;1.48;;;;;;;19.83;44.16;99716.53;4361544;32;33808;-68
2022/05/28 08:00:41;;;;;;;2.62;1.40;;;;;;;20.20;42.05;99714.53;4361779;32;33549;-67
2022/05/28 08:03:10;;;;;;;2.12;1.37;;;;;;;20.31;42.13;99712.34;4361410;32;33844;-68
2022/05/28 08:05:38;;;;;;;2.12;1.23;;;;;;;20.28;42.88;99720.09;4348358;32;34327;-68
2022/05/28 08:08:06;;;;;;;1.77;1.08;;;;;;;20.12;42.87;99712.53;4361574;32;33949;-69
2022/05/28 08:10:34;;;;;;;2.75;1.12;;;;;;;19.99;43.90;99705.94;4360378;32;33341;-68
2022/05/28 08:13:13;;;;;;;1.60;1.20;;;;;;;20.18;41.56;99703.81;4361596;32;33669;-68
2022/05/28 08:15:43;;;;;;;2.40;1.05;;;;;;;20.13;41.51;99703.13;4348321;32;35115;-69
2022/05/28 08:18:12;;;;;;;2.47;1.10;;;;;;;20.35;41.22;99700.38;4361474;32;33533;-70
2022/05/28 08:23:26;;;;;;;3.42;1.30;;;;;;;20.41;41.43;99710.13;4361059;32;33818;-70
2022/05/28 08:25:53;;;;;;;1.90;1.20;;;;;;;20.42;40.69;99708.19;4361557;32;34097;-71
2022/05/28 08:28:21;;;;;;;1.15;1.02;;;;;;;20.28;40.66;99725.63;4361552;32;33960;-70
2022/05/28 08:30:49;;;;;;;1.83;1.48;;;;;;;19.71;44.11;99724.50;4361067;32;33559;-70
2022/05/28 08:33:18;;;;;;;1.73;1.37;;;;;;;20.28;40.33;99733.87;4361175;32;33967;-70
2022/05/28 08:35:46;;;;;;;2.67;1.52;;;;;;;19.84;43.15;99720.91;4363554;32;35365;-70
2022/05/28 08:38:16;;;;;;;2.42;1.20;;;;;;;20.17;41.23;99721.50;4363168;32;34093;-70
2022/05/28 08:40:45;;;;;;;1.50;1.00;;;;;;;20.37;39.65;99722.91;4363661;32;33296;-69
2022/05/28 08:43:14;;;;;;;4.07;1.20;;;;;;;20.52;39.52;99715.34;4350255;32;33744;-70
2022/05/28 08:45:49;;;;;;;2.90;1.15;;;;;;;20.00;39.08;99710.31;4350171;32;34924;-70
2022/05/28 08:48:20;;;;;;;2.93;1.43;;;;;;;20.11;40.98;99716.41;4363291;32;34683;-71
2022/05/28 08:50:55;;;;;;;2.15;1.40;;;;;;;19.68;40.92;99720.41;4350222;32;33384;-72
2022/05/28 08:53:23;;;;;;;;;;;;;;;20.68;37.67;99720.19;4350632;32;33996;-74
2022/05/28 08:55:53;;;;;;;2.05;1.30;;;;;;;21.06;38.24;99714.19;4350100;32;35173;-70
2022/05/28 08:58:24;;;;;;;1.40;1.10;;;;;;;19.75;41.57;99711.75;4350274;32;33886;-72
2022/05/28 09:01:02;;;;;;;1.52;1.23;;;;;;;19.93;41.15;99712.72;4363803;32;33434;-70
2022/05/28 09:03:44;;;;;;;2.83;1.20;;;;;;;20.27;39.01;99720.41;4350092;32;33789;-70
2022/05/28 09:06:15;;;;;;;2.25;1.10;;;;;;;20.40;41.41;99722.25;4363574;32;34869;-70
2022/05/28 09:08:50;;;;;;;3.55;1.23;;;;;;;20.99;36.92;99710.25;4363424;32;33712;-70
2022/05/28 09:11:21;;;;;;;4.47;1.27;;;;;;;21.24;35.44;99709.50;4350186;32;33321;-70
2022/05/28 09:13:51;;;;;;;1.30;1.20;;;;;;;20.52;39.69;99696.91;4363389;32;33970;-70
2022/05/28 09:16:24;;;;;;;1.75;1.30;;;;;;;19.82;41.27;99692.88;4350353;32;34912;-71
2022/05/28 09:18:54;;;;;;;3.58;1.50;;;;;;;20.83;37.96;99701.59;4363421;32;33872;-71
2022/05/28 09:21:22;;;;;;;3.85;1.40;;;;;;;20.91;39.32;99695.31;4363277;32;34154;-74
2022/05/28 09:24:07;;;;;;;1.95;1.10;;;;;;;21.39;37.03;99701.91;4361541;32;33977;-77
2022/05/28 09:26:41;;;;;;;1.70;1.20;;;;;;;20.61;39.15;99703.28;4349731;32;34048;-70
2022/05/28 09:29:17;;;;;;;4.80;1.42;;;;;;;20.92;38.86;99702.44;4363471;32;34001;-70
2022/05/28 09:32:20;;;;;;;3.53;1.75;;;;;;;21.21;36.66;99704.66;4349790;32;33463;-71
2022/05/28 09:35:26;;;;;;;2.47;1.25;;;;;;;21.09;38.58;99698.94;4349987;32;33849;-71
2022/05/28 09:38:04;;;;;;;2.28;1.40;;;;;;;20.89;39.83;99697.56;4335281;32;35123;-72
2022/05/28 09:40:50;;;;;;;1.70;1.30;;;;;;;20.92;39.87;99694.16;4363366;32;34694;-71
2022/05/28 09:43:27;;;;;;;1.92;1.30;;;;;;;21.36;37.61;99699.78;4363237;32;33595;-71
2022/05/28 09:46:27;;;;;;;3.80;1.67;;;;;;;21.06;40.20;99711.41;4362731;32;34052;-71
2022/05/28 09:49:22;;;;;;;1.77;1.35;;;;;;;21.18;39.16;99699.75;4357576;32;34937;-72
2022/05/28 09:52:10;;;;;;;1.55;1.25;;;;;;;21.33;37.83;99711.47;4347281;32;34670;-71
2022/05/28 09:54:38;;;;;;;3.00;1.30;;;;;;;20.78;40.53;99716.34;4349120;32;33499;-72
2022/05/28 09:57:10;;;;;;;2.70;1.40;;;;;;;20.78;41.10;99708.06;4363246;32;33983;-71
2022/05/28 09:59:44;;;;;;;1.92;1.30;;;;;;;21.28;39.32;99716.00;4349815;32;34066;-71
2022/05/28 10:02:21;;;;;;;3.00;1.58;;;;;;;21.36;38.61;99711.66;4363458;32;34042;-71
2022/05/28 10:04:57;;;;;;;2.45;1.40;;;;;;;21.42;38.41;99712.34;4363121;32;33440;-70
2022/05/28 10:07:49;;;;;;;1.83;1.30;;;;;;;20.96;39.31;99708.94;4361979;32;33954;-73
2022/05/28 10:10:32;;;;;;;3.28;1.45;;;;;;;20.94;40.53;99710.41;4363169;32;34187;-70
2022/05/28 10:13:09;;;;;;;2.30;1.45;;;;;;;21.09;39.53;99699.72;4362690;32;34577;-69
2022/05/28 10:15:43;;;;;;;2.78;1.55;;;;;;;21.23;39.56;99693.25;4349687;32;34386;-69
2022/05/28 10:18:15;;;;;;;2.28;1.52;;;;;;;21.44;39.61;99690.75;4349819;32;33829;-70
2022/05/28 10:20:43;;;;;;;2.80;1.50;;;;;;;21.66;38.04;99684.25;4349315;32;34218;-69
2022/05/28 10:23:14;;;;;;;5.43;1.65;;;;;;;21.89;40.21;99691.25;4349756;32;33800;-69
2022/05/28 10:25:50;;;;;;;2.10;1.52;;;;;;;21.53;38.54;99674.19;4349770;32;34149;-70
2022/05/28 10:28:33;;;;;;;2.37;1.48;;;;;;;21.89;37.28;99679.38;4360252;32;34752;-73
2022/05/28 10:31:01;;;;;;;1.67;1.20;;;;;;;22.39;38.03;99669.72;4349639;32;33972;-71
2022/05/28 10:33:29;;;;;;;1.80;1.52;;;;;;;21.88;37.24;99675.03;4349585;32;34356;-69
2022/05/28 10:36:19;;;;;;;1.40;1.30;;;;;;;21.82;37.79;99679.06;4362564;32;34044;-72
2022/05/28 10:38:47;;;;;;;1.85;1.60;;;;;;;21.71;38.51;99673.87;4362864;32;34848;-68
2022/05/28 10:41:25;;;;;;;1.58;1.30;;;;;;;21.63;37.85;99671.91;4362481;32;34120;-70
2022/05/28 10:43:53;;;;;;;3.37;1.33;;;;;;;21.13;39.81;99671.53;4349522;32;33990;-73
2022/05/28 10:46:31;;;;;;;2.33;1.30;;;;;;;21.39;38.22;99666.84;4362715;32;34214;-73
2022/05/28 10:49:20;;;;;;;1.75;1.30;;;;;;;21.68;37.03;99666.25;4343822;32;34575;-70
2022/05/28 10:52:05;;;;;;;1.40;1.20;;;;;;;21.56;36.84;99660.56;4362669;32;34066;-70
2022/05/28 10:54:35;;;;;;;2.55;1.40;;;;;;;21.57;37.72;99675.97;4359491;32;81975;-68
2022/05/28 10:57:35;;;;;;;3.67;1.20;;;;;;;21.91;35.78;99660.53;4361132;32;33425;-69
2022/05/28 11:00:13;;;;;;;2.72;1.10;;;;;;;22.43;33.44;99660.44;4353204;32;33838;-71
2022/05/28 11:03:22;;;;;;;1.42;1.30;;;;;;;22.12;35.96;99661.47;4349557;32;34155;-69
2022/05/28 11:06:18;;;;;;;2.87;1.17;;;;;;;22.24;33.81;99651.72;4361881;32;34025;-71
2022/05/28 11:08:57;;;;;;;3.45;1.58;;;;;;;22.15;33.89;99653.69;4362652;32;33431;-69
2022/05/28 11:11:48;;;;;;;1.65;1.10;;;;;;;21.90;35.46;99651.44;4348320;32;33966;-70
2022/05/28 11:14:36;;;;;;;2.08;1.08;;;;;;;22.28;33.29;99655.47;4362431;32;34314;-70
2022/05/28 11:17:22;;;;;;;1.00;0.90;;;;;;;22.01;33.96;99659.38;4362241;32;33570;-71
2022/05/28 11:19:56;;;;;;;2.80;1.20;;;;;;;22.12;31.55;99655.97;4362124;32;33560;-70
2022/05/28 11:22:46;;;;;;;2.03;1.05;;;;;;;22.04;32.52;99654.00;4362256;32;34637;-71
2022/05/28 11:25:29;;;;;;;2.87;1.30;;;;;;;21.81;31.82;99647.06;4362436;32;35087;-69
2022/05/28 11:28:34;;;;;;;1.27;1.17;;;;;;;21.79;31.27;99658.44;4356468;32;34180;-69
2022/05/28 11:31:24;;;;;;;2.07;1.40;;;;;;;22.04;31.63;99648.50;4362285;32;34057;-68
2022/05/28 11:33:52;;;;;;;2.65;1.52;;;;;;;22.43;30.48;99641.09;4348695;32;33885;-69
2022/05/28 11:36:29;;;;;;;2.60;1.45;;;;;;;22.41;31.74;99632.31;4348592;32;34265;-70
2022/05/28 11:39:10;;;;;;;1.83;1.20;;;;;;;22.35;32.75;99639.16;4348564;32;33754;-70
2022/05/28 11:41:48;;;;;;;1.75;1.00;;;;;;;22.83;30.01;99628.88;4348312;32;33269;-71
2022/05/28 11:44:39;;;;;;;2.97;1.98;;;;;;;22.64;30.74;99632.88;4362159;32;34685;-72
2022/05/28 11:47:30;;;;;;;2.00;1.10;;;;;;;22.44;32.12;99637.22;4362465;32;34071;-71
2022/05/28 11:53:44;;;;;;;2.05;1.10;;;;;;;22.33;31.40;99616.56;4350594;32;33904;-72
2022/05/28 11:56:16;;;;;;;;;;;;;;;22.17;31.77;99624.56;4348835;32;34950;-71
2022/05/28 11:58:53;;;;;;;1.62;1.20;;;;;;;22.48;30.67;99609.69;4348551;32;35465;-71
2022/05/28 12:01:23;;;;;;;4.97;1.60;;;;;;;22.05;33.01;99616.16;4348400;32;33804;-71
2022/05/28 12:03:52;;;;;;;1.98;1.40;;;;;;;22.15;33.08;99606.69;4348671;32;33497;-72
2022/05/28 12:06:35;;;;;;;1.92;1.20;;;;;;;21.76;34.39;99614.91;4362057;32;33902;-71